Ust'-Ordynskiy, Russia
Current Conditions -  °F | °C
As of 10:30 AM on Monday 24 Nov 2014 (Local Time) from UIII Reporting Station
Clear Clear  
Wind Chill: 16°   Ceiling: Unl
Heat Index: 16°   Visibility: 6mi
Dew Point:   Wind: 2mph
Humidity: 68%   Direction: NA
Pressure: 29.68"   Gusts: NA
Location:  52.53°N, 104.41°E
Report Text: UIII 240230Z VRB01MPS CAVOK M09/M14 Q1005 NOSIG RMK QFE712/094912810360
Loading
Personal Weather Stations






























Interactive Weather Map New forecast layout! Learn more

10-Day Weather Forecast

Advertisements
Track Severe Weather on mobile